Date,TemperatureHighF,TemperatureAvgF,TemperatureLowF,DewpointHighF,DewpointAvgF,DewpointLowF,HumidityHigh,HumidityAvg,HumidityLow,PressureMaxIn,PressureMinIn,WindSpeedMaxMPH,WindSpeedAvgMPH,GustSpeedMaxMPH,PrecipitationSumIn
2014-2-1,64.3,46.5,29.5,47.4,35.8,18.2,93,67,51,30.17,30.05,12,1,12,0.00
2014-2-2,59.3,52.0,37.1,58.8,51.0,36.6,99,96,92,30.09,29.85,18,2,18,2.00
2014-2-3,38.2,37.8,37.5,37.9,37.5,37.2,99,99,99,29.97,29.90,10,2,10,0.40
2014-2-4,57.4,53.9,51.2,57.4,53.8,50.9,100,100,99,29.95,29.83,17,3,17,0.79
2014-2-5,56.7,35.7,26.1,56.4,32.9,21.0,99,89,77,30.37,29.85,19,4,19,0.20
2014-2-6,32.0,27.3,22.6,25.0,23.3,21.1,95,85,73,30.45,30.33,15,2,15,0.00
2014-2-7,36.2,29.1,20.9,27.7,24.4,19.7,96,83,66,30.47,30.31,8,1,8,0.00
2014-2-8,51.9,38.8,29.4,39.0,33.1,26.5,93,81,60,30.32,30.17,5,1,9,0.00
2014-2-9,54.9,42.4,34.5,43.0,37.9,33.5,97,85,62,30.20,30.08,14,2,14,0.00
2014-2-10,38.6,33.3,29.8,37.0,30.2,24.0,97,88,79,30.26,30.12,13,2,13,0.01
2014-2-11,35.2,30.8,25.1,32.7,27.7,23.5,96,88,79,30.33,30.17,13,2,13,0.06
2014-2-12,33.8,31.7,30.8,32.8,30.8,29.5,98,97,95,30.18,29.89,21,2,21,0.42
2014-2-13,45.5,34.9,26.8,34.2,30.4,25.8,98,85,54,29.98,29.88,9,1,9,0.83
2014-2-14,47.4,42.4,33.4,42.5,39.8,31.6,97,91,74,29.89,29.75,24,5,24,0.27
2014-2-15,43.4,32.3,27.5,31.7,25.3,22.3,94,76,47,30.20,29.89,21,3,21,0.00
2014-2-16,61.5,49.5,36.9,36.3,33.1,30.4,82,55,31,30.19,30.13,10,2,12,0.00
2014-2-17,59.5,49.5,36.1,55.7,44.4,31.7,99,84,58,30.19,30.01,16,2,16,0.07
2014-2-18,68.5,53.5,37.3,58.6,45.4,36.2,97,77,47,30.23,30.02,9,2,12,0.03
2014-2-19,62.5,58.6,56.5,59.9,57.6,55.9,99,97,90,30.03,29.97,5,0,5,0.00
2014-2-20,70.8,63.9,56.6,63.8,60.9,55.6,98,90,77,29.99,29.77,20,4,20,0.01
2014-2-22,67.6,56.1,45.8,34.7,28.4,18.0,58,37,17,30.15,30.05,13,2,13,0.00
2014-2-23,71.3,55.8,38.9,41.1,35.1,29.7,81,49,24,30.07,29.94,11,1,11,0.00
2014-2-24,44.2,39.1,34.2,36.9,34.8,31.3,90,85,75,30.19,30.07,11,2,11,0.00
2014-2-27,34.9,29.1,26.5,22.0,19.6,16.9,74,68,52,30.10,30.06,1,0,1,0.00
2014-2-28,52.9,40.2,24.7,38.9,23.0,14.7,96,56,23,30.20,30.08,15,1,15,0.12